Pioneer Third — DUIX — position and weather

sailwx.info

Track history (hours):
 
Tides and Currents Weather Stations Pressure Air Temp Water Temp Dewpoint Dewpoint Depression Visibility Wind Speed Wind Dir Waves Ship Positions

Pioneer Third

Last reported at 2017-Sep-22 00:01 UTC. Time now 2017-Sep-25 13:34 UTC.
Position N 31°01' E 122°24'.

Length 111 m; draft 5.1 m.

Type: Cargo ship. MMSI: 548956000.

Date/timePositionNaut miles runAvg speedWind from/ knotsBaromVisibWave heightAir tempDewpointWater temp
2017-Sep-22 00:01N 31°01' E 122°24'112.1
2017-Sep-21 23:55N 31°01' E 122°22'512.6
2017-Sep-21 23:30N 31°02' E 122°17'611.4
2017-Sep-21 23:00N 31°03' E 122°10'713.9
2017-Sep-21 22:30N 31°05' E 122°02'714.9
2017-Sep-21 22:00N 31°08' E 121°54'815.8
2017-Sep-21 21:30N 31°13' E 121°48'815.5
2017-Sep-21 21:00N 31°19' E 121°42'611.8
2017-Sep-21 20:30N 31°23' E 121°36'5 9.7
2017-Sep-21 20:00N 31°23' E 121°30'2 4.2
2017-Sep-21 19:27N 31°21' E 121°31'0 0.0
2017-Sep-21 18:57N 31°21' E 121°31'0 0.0
2017-Sep-21 18:21N 31°21' E 121°31'0 0.0
2017-Sep-21 17:45N 31°21' E 121°31'0 0.0
2017-Sep-21 17:27N 31°21' E 121°31'0 0.0
2017-Sep-21 16:57N 31°21' E 121°31'0 0.0
2017-Sep-21 16:30N 31°21' E 121°31'0 0.0
2017-Sep-21 16:00N 31°21' E 121°31'0 0.0
2017-Sep-21 15:30N 31°21' E 121°31'0 0.0
2017-Sep-21 15:00N 31°21' E 121°31'0 0.0
2017-Sep-21 13:51N 31°21' E 121°31'0 0.0
2017-Sep-21 13:21N 31°21' E 121°31'0 0.0
2017-Sep-21 12:48N 31°21' E 121°31'0 0.0
2017-Sep-21 12:27N 31°21' E 121°31'0 0.0
2017-Sep-21 11:57N 31°21' E 121°31'0 0.0
2017-Sep-21 11:27N 31°21' E 121°31'0 0.0
2017-Sep-21 10:51N 31°21' E 121°31'0 0.0
2017-Sep-21 10:27N 31°21' E 121°31'0 0.0
2017-Sep-21 10:00N 31°21' E 121°31'0 0.0
2017-Sep-21 09:27N 31°21' E 121°31'0 0.0
2017-Sep-21 08:51N 31°21' E 121°31'0 0.0
2017-Sep-21 08:27N 31°21' E 121°31'0 0.0
2017-Sep-21 08:00N 31°21' E 121°31'0 0.2
2017-Sep-21 07:30N 31°21' E 121°31'2 3.6
2017-Sep-21 07:01N 31°23' E 121°30'2 4.9
2017-Sep-21 06:30N 31°24' E 121°33'3 7.0
2017-Sep-21 06:00N 31°23' E 121°36'4 7.2
2017-Sep-21 05:31N 31°21' E 121°40'4 8.2
2017-Sep-21 05:00N 31°18' E 121°43'5 9.4
2017-Sep-21 04:30N 31°15' E 121°47'5 9.8
2017-Sep-21 04:00N 31°11' E 121°51'612.3
2017-Sep-21 03:30N 31°07' E 121°57'612.4
2017-Sep-21 03:00N 31°05' E 122°03'711.5
2017-Sep-21 02:22N 31°03' E 122°12'3 8.1
2017-Sep-21 02:00N 31°03' E 122°15'  
Track history (hours):
 
Tides and Currents Weather Stations Pressure Air Temp Water Temp Dewpoint Dewpoint Depression Visibility Wind Speed Wind Dir Waves Ship Positions

Pioneer Third

Last reported at 2017-Sep-22 00:01 UTC. Time now 2017-Sep-25 13:34 UTC.
Position N 31°01' E 122°24'.

Length 111 m; draft 5.1 m.

Type: Cargo ship. MMSI: 548956000.

Date/timePositionNaut miles runAvg speedWind from/ knotsBaromVisibWave heightAir tempDewpointWater temp
2017-Sep-22 00:01N 31°01' E 122°24'112.1
2017-Sep-21 23:55N 31°01' E 122°22'512.6
2017-Sep-21 23:30N 31°02' E 122°17'611.4
2017-Sep-21 23:00N 31°03' E 122°10'713.9
2017-Sep-21 22:30N 31°05' E 122°02'714.9
2017-Sep-21 22:00N 31°08' E 121°54'815.8
2017-Sep-21 21:30N 31°13' E 121°48'815.5
2017-Sep-21 21:00N 31°19' E 121°42'611.8
2017-Sep-21 20:30N 31°23' E 121°36'5 9.7
2017-Sep-21 20:00N 31°23' E 121°30'2 4.2
2017-Sep-21 19:27N 31°21' E 121°31'0 0.0
2017-Sep-21 18:57N 31°21' E 121°31'0 0.0
2017-Sep-21 18:21N 31°21' E 121°31'0 0.0
2017-Sep-21 17:45N 31°21' E 121°31'0 0.0
2017-Sep-21 17:27N 31°21' E 121°31'0 0.0
2017-Sep-21 16:57N 31°21' E 121°31'0 0.0
2017-Sep-21 16:30N 31°21' E 121°31'0 0.0
2017-Sep-21 16:00N 31°21' E 121°31'0 0.0
2017-Sep-21 15:30N 31°21' E 121°31'0 0.0
2017-Sep-21 15:00N 31°21' E 121°31'0 0.0
2017-Sep-21 13:51N 31°21' E 121°31'0 0.0
2017-Sep-21 13:21N 31°21' E 121°31'0 0.0
2017-Sep-21 12:48N 31°21' E 121°31'0 0.0
2017-Sep-21 12:27N 31°21' E 121°31'0 0.0
2017-Sep-21 11:57N 31°21' E 121°31'0 0.0
2017-Sep-21 11:27N 31°21' E 121°31'0 0.0
2017-Sep-21 10:51N 31°21' E 121°31'0 0.0
2017-Sep-21 10:27N 31°21' E 121°31'0 0.0
2017-Sep-21 10:00N 31°21' E 121°31'0 0.0
2017-Sep-21 09:27N 31°21' E 121°31'0 0.0
2017-Sep-21 08:51N 31°21' E 121°31'0 0.0
2017-Sep-21 08:27N 31°21' E 121°31'0 0.0
2017-Sep-21 08:00N 31°21' E 121°31'0 0.2
2017-Sep-21 07:30N 31°21' E 121°31'2 3.6
2017-Sep-21 07:01N 31°23' E 121°30'2 4.9
2017-Sep-21 06:30N 31°24' E 121°33'3 7.0
2017-Sep-21 06:00N 31°23' E 121°36'4 7.2
2017-Sep-21 05:31N 31°21' E 121°40'4 8.2
2017-Sep-21 05:00N 31°18' E 121°43'5 9.4
2017-Sep-21 04:30N 31°15' E 121°47'5 9.8
2017-Sep-21 04:00N 31°11' E 121°51'612.3
2017-Sep-21 03:30N 31°07' E 121°57'612.4
2017-Sep-21 03:00N 31°05' E 122°03'711.5
2017-Sep-21 02:22N 31°03' E 122°12'3 8.1
2017-Sep-21 02:00N 31°03' E 122°15'  

Dump ship's entire track history